Palouse, WA

1:57 PM PDT on October 25, 2014 (GMT -0700)
Spokane International | Change Station
CLOSE
Current Station
Airport
Location: Spokane,
Elevation: 2365 ft
Nearby Weather Stations
Active Advisory: Wind Advisory

Elev 2365 ft 47.62 °N, 117.53 °W | Updated 1 hour ago

Partly Cloudy
Partly Cloudy
55 °F
Feels Like 55 °F
N
8
Wind Variable Wind from ENE

Today
High -- | Low -- °F
--% Chance of Precip.
Yesterday
High -- | Low -- °F
Precip. -- in
7:20 AM 5:43 PM
Waxing Crescent, 4% visible
Pressure 29.58 in
Visibility 10.0 miles
Clouds Few 8000 ft
Mostly Cloudy 11000 ft
Mostly Cloudy 20000 ft
Dew Point 43 °F
Humidity 64%
Rainfall 0.00 in
Snow Depth Not available.
UV 2 out of 12
Pollen 2.40 out of 12
Air Quality Not available.
Flu Activity Sporadic
METAR KGEG 251953Z 06007KT 10SM FEW080 BKN110 BKN200 13/06 A2958 RMK AO2 SLP017 VIRGA T01280061

More Conditions Fewer Conditions

Pressure 29.58 in
Visibility 10.0 miles
Clouds Few 8000 ft
Mostly Cloudy 11000 ft
Mostly Cloudy 20000 ft
Dew Point 43 °F
Humidity 64%
Rainfall 0.00 in
Snow Depth Not available.
UV 2 out of 12
Pollen 2.40 out of 12
Air Quality Not available.
Flu Activity Sporadic
METAR KGEG 251953Z 06007KT 10SM FEW080 BKN110 BKN200 13/06 A2958 RMK AO2 SLP017 VIRGA T01280061

More Conditions Fewer Conditions

10-Day Weather Forecast

Almanac

Astronomy

Oct. 25, 2014 Rise Set
Actual Time 7:20 AM PDT 5:43 PM PDT
Civil Twilight 6:49 AM PDT 6:14 PM PDT
Nautical Twilight 6:13 AM PDT 6:50 PM PDT
Astronomical Twilight 5:38 AM PDT 7:25 PM PDT
Moon 9:09 AM PDT 7:04 PM PDT
Length of Visible Light 11h 25m
Length of Day
10h 22m
Tomorrow will be 3m 6s shorter.
Waxing Crescent, 4% of the Moon is Illuminated
Today
Waxing Crescent
Oct 30
First Quarter
Nov 6
Full
Nov 14
Last Quarter
Nov 22
New

Today's Extremes

State Highs State Lows

Community

WunderPhotos

Upload Photos

1,764,989 photos uploaded!

Nearby

Snow Depth

Station Depth Elevation
Sourdough Gulch 0 in 4000 ft
Quartz Peak 1 in 4700 ft
Bunchgrass Meadow 0 in 5000 ft
Moses Mountain 0 in 5300 ft
Sentinel Butte 0 in 4920 ft

Earthquake Activity

City Distance Mag. Time & Date
No recent earthquake activity has been reported nearby.
Minimum magnitude displayed is 2.5.

Coastal Water Temperatures

Place Temperature
No Stations Reporting

Nearby Weather Stations